Time;durP1;ratioP1;P1;durP2;ratioP2;P2;SDS_P1;SDS_P2;PMS_P1;PMS_P2;Temp;Humidity;BMP_temperature;BMP_pressure;BME280_temperature;BME280_humidity;BME280_pressure;Samples;Min_cycle;Max_cycle;Signal;HPM_P1;HPM_P2
2023/09/25 00:00:35;;;;;;;6.00;2.80;;;23.90;48.50;;;;;;5093308;28;20513;-78
2023/09/25 00:03:04;;;;;;;3.20;3.00;;;23.90;48.60;;;;;;5085426;28;20441;-79
2023/09/25 00:05:33;;;;;;;7.43;2.57;;;23.90;48.70;;;;;;5091517;28;20468;-79
2023/09/25 00:08:02;;;;;;;3.17;2.87;;;23.90;48.70;;;;;;5091632;28;20423;-78
2023/09/25 00:10:31;;;;;;;7.53;3.20;;;23.90;48.80;;;;;;5092056;28;20431;-79
2023/09/25 00:13:00;;;;;;;3.77;3.43;;;23.90;48.80;;;;;;5083878;28;20430;-80
2023/09/25 00:15:28;;;;;;;5.17;3.80;;;23.80;48.80;;;;;;5089368;28;20432;-79
2023/09/25 00:17:57;;;;;;;5.13;3.20;;;23.80;48.80;;;;;;5090877;28;20488;-79
2023/09/25 00:20:26;;;;;;;3.77;3.43;;;23.80;49.00;;;;;;5092258;28;20420;-79
2023/09/25 00:22:55;;;;;;;2.73;2.63;;;23.80;49.00;;;;;;5091705;28;20479;-79
2023/09/25 00:25:24;;;;;;;3.40;3.20;;;23.80;49.00;;;;;;5091426;28;20450;-81
2023/09/25 00:27:52;;;;;;;2.53;2.30;;;23.80;49.00;;;;;;5091527;28;20439;-79
2023/09/25 00:30:21;;;;;;;3.80;3.00;;;23.70;49.00;;;;;;5091609;28;20411;-78
2023/09/25 00:32:50;;;;;;;3.80;2.87;;;23.70;49.00;;;;;;5094094;28;20427;-79
2023/09/25 00:35:20;;;;;;;2.97;2.77;;;23.70;49.00;;;;;;5103265;28;20443;-79
2023/09/25 00:37:48;;;;;;;4.73;3.03;;;23.70;48.90;;;;;;5088685;28;20432;-78
2023/09/25 00:40:18;;;;;;;2.93;2.73;;;23.70;49.00;;;;;;5091235;28;20469;-80
2023/09/25 00:42:47;;;;;;;5.87;3.13;;;23.60;49.00;;;;;;5091622;28;20400;-79
2023/09/25 00:45:15;;;;;;;3.40;2.97;;;23.60;48.90;;;;;;5091529;28;20555;-79
2023/09/25 00:47:44;;;;;;;3.30;3.00;;;23.70;49.00;;;;;;5096001;28;20472;-80
2023/09/25 00:50:13;;;;;;;3.73;3.40;;;23.60;49.10;;;;;;5111144;28;20442;-79
2023/09/25 00:52:42;;;;;;;2.80;2.60;;;23.50;49.10;;;;;;5120861;28;20522;-81
2023/09/25 00:55:11;;;;;;;2.90;2.60;;;23.50;49.20;;;;;;5119236;28;20451;-78
2023/09/25 00:57:39;;;;;;;2.93;2.73;;;23.50;49.10;;;;;;5116545;28;20571;-77
2023/09/25 01:00:11;;;;;;;3.17;2.87;;;23.50;49.20;;;;;;5116374;28;20447;-77
2023/09/25 01:02:40;;;;;;;3.23;2.97;;;23.50;49.20;;;;;;5110539;28;20486;-80
2023/09/25 01:05:10;;;;;;;2.63;2.50;;;23.50;49.20;;;;;;5108147;28;20467;-81
2023/09/25 01:07:38;;;;;;;3.73;2.70;;;23.50;49.00;;;;;;5117804;28;20517;-79
2023/09/25 01:10:13;;;;;;;3.43;2.60;;;23.50;49.30;;;;;;5117941;28;20467;-79
2023/09/25 01:12:41;;;;;;;2.87;2.77;;;23.40;49.20;;;;;;5115620;28;20431;-78
2023/09/25 01:15:10;;;;;;;3.10;2.90;;;23.40;49.30;;;;;;5115654;28;20428;-78
2023/09/25 01:17:38;;;;;;;5.97;2.70;;;23.40;49.30;;;;;;5111546;28;20491;-80
2023/09/25 01:20:13;;;;;;;3.40;3.00;;;23.40;49.40;;;;;;5110667;28;20906;-78
2023/09/25 01:22:44;;;;;;;2.40;2.30;;;23.40;50.10;;;;;;5095336;28;20444;-79
2023/09/25 01:25:12;;;;;;;2.93;2.67;;;23.40;49.40;;;;;;5094702;28;20477;-78
2023/09/25 01:27:42;;;;;;;3.07;2.63;;;23.40;49.40;;;;;;5090251;28;20443;-78
2023/09/25 01:30:11;;;;;;;5.80;2.90;;;23.30;49.40;;;;;;5093604;28;20452;-79
2023/09/25 01:32:39;;;;;;;4.20;2.50;;;23.30;49.40;;;;;;5093244;28;20449;-78
2023/09/25 01:35:13;;;;;;;2.73;2.53;;;23.30;49.40;;;;;;5092327;28;20441;-79
2023/09/25 01:37:43;;;;;;;5.07;2.70;;;23.30;49.40;;;;;;5110037;28;20434;-78
2023/09/25 01:40:17;;;;;;;2.93;2.67;;;23.30;49.30;;;;;;5093323;28;20418;-78
2023/09/25 01:42:45;;;;;;;2.43;2.23;;;23.30;49.50;;;;;;5093429;28;20444;-78
2023/09/25 01:45:16;;;;;;;2.50;2.40;;;23.20;49.30;;;;;;5094588;28;20518;-77
2023/09/25 01:47:49;;;;;;;2.47;2.30;;;23.20;49.40;;;;;;5094335;28;20450;-79
2023/09/25 01:50:18;;;;;;;2.70;2.50;;;23.20;49.40;;;;;;5094451;28;20482;-78
2023/09/25 01:52:48;;;;;;;3.53;3.23;;;23.10;49.20;;;;;;5093591;28;20448;-79
2023/09/25 01:55:16;;;;;;;2.20;2.10;;;23.20;49.30;;;;;;5102783;28;20399;-78
2023/09/25 01:57:45;;;;;;;3.73;2.27;;;23.10;49.30;;;;;;5111742;28;20464;-79
2023/09/25 02:00:16;;;;;;;2.47;2.27;;;23.10;49.40;;;;;;5114050;28;20440;-78
2023/09/25 02:02:44;;;;;;;2.37;2.20;;;23.10;49.30;;;;;;5114442;28;20531;-78
2023/09/25 02:05:12;;;;;;;2.00;1.90;;;23.10;49.30;;;;;;5114592;28;20524;-77
2023/09/25 02:07:41;;;;;;;2.17;2.07;;;23.00;49.30;;;;;;5114381;28;20471;-80
2023/09/25 02:10:11;;;;;;;2.20;2.07;;;23.10;49.90;;;;;;5110076;28;20434;-79
2023/09/25 02:12:39;;;;;;;2.47;2.17;;;23.00;49.40;;;;;;5105561;28;20490;-78
2023/09/25 02:15:09;;;;;;;2.53;2.27;;;23.00;49.40;;;;;;5089725;28;20444;-78
2023/09/25 02:17:37;;;;;;;2.43;2.23;;;23.00;49.50;;;;;;5093295;28;20538;-79
2023/09/25 02:20:16;;;;;;;2.93;2.40;;;23.00;49.30;;;;;;5093528;28;20420;-79
2023/09/25 02:22:46;;;;;;;2.60;2.40;;;22.90;49.30;;;;;;5093921;28;20518;-78
2023/09/25 02:25:16;;;;;;;2.13;2.00;;;22.90;49.40;;;;;;5093447;28;20443;-79
2023/09/25 02:27:44;;;;;;;2.37;2.20;;;22.90;49.30;;;;;;5092363;28;20479;-78
2023/09/25 02:30:13;;;;;;;2.80;2.50;;;22.90;49.40;;;;;;5101932;28;20403;-79
2023/09/25 02:32:41;;;;;;;2.60;2.40;;;22.90;49.30;;;;;;5093510;28;20483;-78
2023/09/25 02:35:10;;;;;;;2.03;1.93;;;22.90;49.30;;;;;;5093397;28;20426;-78
2023/09/25 02:37:40;;;;;;;4.40;2.20;;;22.80;49.20;;;;;;5093526;28;20916;-78
2023/09/25 02:40:13;;;;;;;2.50;2.30;;;22.80;49.40;;;;;;5093294;28;20422;-80
2023/09/25 02:42:44;;;;;;;1.80;1.70;;;22.80;49.40;;;;;;5093398;28;20535;-78
2023/09/25 02:45:13;;;;;;;2.10;2.00;;;22.80;49.40;;;;;;5100463;28;21011;-78
2023/09/25 02:47:41;;;;;;;2.27;2.07;;;22.80;49.50;;;;;;5110455;28;20500;-79
2023/09/25 02:50:10;;;;;;;1.93;1.83;;;22.80;49.40;;;;;;5113047;28;20440;-80
2023/09/25 02:52:38;;;;;;;1.93;1.83;;;22.80;49.50;;;;;;5113874;28;20472;-79
2023/09/25 02:55:07;;;;;;;5.50;2.00;;;22.80;49.50;;;;;;5113496;28;20403;-79
2023/09/25 02:57:35;;;;;;;1.63;1.53;;;22.80;49.40;;;;;;5113641;28;20456;-79
2023/09/25 03:00:09;;;;;;;2.20;2.00;;;22.80;49.40;;;;;;5113413;28;20431;-77
2023/09/25 03:02:37;;;;;;;2.20;1.70;;;22.80;49.30;;;;;;5110570;28;20447;-79
2023/09/25 03:05:06;;;;;;;2.03;1.93;;;22.70;49.30;;;;;;5096791;28;20440;-78
2023/09/25 03:07:35;;;;;;;2.43;1.70;;;22.70;49.30;;;;;;5112795;28;20567;-80
2023/09/25 03:10:03;;;;;;;2.17;2.07;;;22.70;49.40;;;;;;5113061;28;20453;-81
2023/09/25 03:12:31;;;;;;;1.93;1.83;;;22.60;49.40;;;;;;5113082;28;20467;-78
2023/09/25 03:14:59;;;;;;;2.10;1.90;;;22.70;49.40;;;;;;5113045;28;20418;-78
2023/09/25 03:17:29;;;;;;;2.00;1.90;;;22.60;49.30;;;;;;5105283;28;20458;-79
2023/09/25 03:19:57;;;;;;;2.30;2.10;;;22.60;49.50;;;;;;5098915;28;20471;-79
2023/09/25 03:22:25;;;;;;;2.00;1.67;;;22.60;49.50;;;;;;5112760;28;20421;-81
2023/09/25 03:24:53;;;;;;;1.90;1.80;;;22.60;49.30;;;;;;5112607;28;20410;-77
2023/09/25 03:27:21;;;;;;;2.33;2.03;;;22.60;49.40;;;;;;5112540;28;20546;-79
2023/09/25 03:29:49;;;;;;;3.23;1.77;;;22.50;49.40;;;;;;5112782;28;20414;-79
2023/09/25 03:32:17;;;;;;;1.90;1.80;;;22.50;49.40;;;;;;5109936;28;20447;-78
2023/09/25 03:34:46;;;;;;;1.97;1.80;;;22.50;49.60;;;;;;5101031;28;20475;-79
2023/09/25 03:37:14;;;;;;;2.30;1.97;;;22.50;49.40;;;;;;5104252;28;20793;-78
2023/09/25 03:39:42;;;;;;;1.90;1.80;;;22.50;49.50;;;;;;5098231;28;20498;-78
2023/09/25 03:42:10;;;;;;;1.80;1.70;;;22.50;49.50;;;;;;5092757;28;20443;-77
2023/09/25 03:44:38;;;;;;;1.70;1.60;;;22.50;49.50;;;;;;5092611;28;20475;-78
2023/09/25 03:47:06;;;;;;;1.87;1.77;;;22.50;49.30;;;;;;5093031;28;20534;-77
2023/09/25 03:49:34;;;;;;;3.20;1.90;;;22.50;49.30;;;;;;5093038;28;20404;-78
2023/09/25 03:52:03;;;;;;;2.60;1.83;;;22.50;49.50;;;;;;5092705;28;20476;-76
2023/09/25 03:54:32;;;;;;;2.50;1.50;;;22.40;49.20;;;;;;5092287;28;20484;-78
2023/09/25 03:56:59;;;;;;;2.17;1.97;;;22.40;49.40;;;;;;5095204;28;20528;-79
2023/09/25 03:59:27;;;;;;;3.87;1.47;;;22.40;49.20;;;;;;5098115;28;20509;-78
2023/09/25 04:01:55;;;;;;;1.87;1.77;;;22.40;49.40;;;;;;5092527;28;20535;-78
2023/09/25 04:04:23;;;;;;;2.20;1.60;;;22.40;49.40;;;;;;5093570;28;20432;-79
2023/09/25 04:06:51;;;;;;;2.47;1.73;;;22.30;49.20;;;;;;5092912;28;20985;-79
2023/09/25 04:09:21;;;;;;;1.53;1.43;;;22.30;49.20;;;;;;5091956;28;20451;-79
2023/09/25 04:11:49;;;;;;;1.67;1.57;;;22.40;49.40;;;;;;5091675;28;20452;-78
2023/09/25 04:14:17;;;;;;;1.80;1.70;;;22.30;49.10;;;;;;5103709;28;20433;-78
2023/09/25 04:16:46;;;;;;;1.87;1.77;;;22.30;49.20;;;;;;5111944;28;20564;-79
2023/09/25 04:19:15;;;;;;;2.77;1.40;;;22.30;49.30;;;;;;5111971;28;20430;-81
2023/09/25 04:21:47;;;;;;;3.17;1.70;;;22.30;49.20;;;;;;5106188;28;20474;-79
2023/09/25 04:24:16;;;;;;;1.60;1.50;;;22.30;49.20;;;;;;5112068;28;20444;-79
2023/09/25 04:26:46;;;;;;;1.63;1.53;;;22.30;49.30;;;;;;5111812;28;20479;-79
2023/09/25 04:29:17;;;;;;;1.80;1.70;;;22.30;49.10;;;;;;5106761;28;20479;-79
2023/09/25 04:31:47;;;;;;;1.60;1.50;;;22.30;49.30;;;;;;5103213;28;20422;-78
2023/09/25 04:34:15;;;;;;;1.57;1.47;;;22.20;49.20;;;;;;5112024;28;20996;-80
2023/09/25 04:36:45;;;;;;;1.50;1.40;;;22.20;49.20;;;;;;5111801;28;20418;-78
2023/09/25 04:39:16;;;;;;;1.57;1.47;;;22.20;49.30;;;;;;5111757;28;20443;-78
2023/09/25 04:41:46;;;;;;;1.40;1.40;;;22.20;49.10;;;;;;5111577;28;20439;-78
2023/09/25 04:44:14;;;;;;;1.90;1.80;;;22.20;48.90;;;;;;5111401;28;20465;-77
2023/09/25 04:46:42;;;;;;;1.50;1.30;;;22.20;49.10;;;;;;5104654;28;20981;-78
2023/09/25 04:49:12;;;;;;;1.80;1.70;;;22.20;49.20;;;;;;5102475;28;20444;-78
2023/09/25 04:51:40;;;;;;;2.97;1.73;;;22.20;49.10;;;;;;5111430;28;20455;-77
2023/09/25 04:54:10;;;;;;;1.80;1.70;;;22.10;49.00;;;;;;5111417;28;20480;-78
2023/09/25 04:56:38;;;;;;;2.10;1.90;;;22.20;49.20;;;;;;5111176;28;20484;-79
2023/09/25 04:59:08;;;;;;;1.70;1.60;;;22.10;49.20;;;;;;5111389;28;20479;-78
2023/09/25 05:01:36;;;;;;;1.57;1.47;;;22.10;49.10;;;;;;5111414;28;20414;-76
2023/09/25 05:04:04;;;;;;;2.60;1.60;;;22.10;49.00;;;;;;5094379;28;20528;-79
2023/09/25 05:06:32;;;;;;;1.70;1.60;;;22.10;49.30;;;;;;5096585;28;20488;-78
2023/09/25 05:09:00;;;;;;;1.33;1.30;;;22.10;49.20;;;;;;5091124;28;20437;-78
2023/09/25 05:11:29;;;;;;;1.87;1.77;;;22.20;49.10;;;;;;5091495;28;20491;-78
2023/09/25 05:13:57;;;;;;;1.90;1.80;;;22.10;49.10;;;;;;5091355;28;20531;-77
2023/09/25 05:16:27;;;;;;;2.00;1.90;;;22.10;49.00;;;;;;5107702;22;20465;-76
2023/09/25 05:18:57;;;;;;;1.47;1.37;;;22.10;48.90;;;;;;5053762;28;20470;-77
2023/09/25 05:21:26;;;;;;;1.80;1.70;;;22.10;49.20;;;;;;5076402;28;20437;-77
2023/09/25 05:23:55;;;;;;;1.70;1.60;;;22.10;49.10;;;;;;5071786;28;20440;-77
2023/09/25 05:26:40;;;;;;;1.60;1.50;;;22.10;49.10;;;;;;5085440;28;20447;-81
2023/09/25 05:29:08;;;;;;;1.63;1.57;;;22.10;49.00;;;;;;5088937;28;20448;-79
2023/09/25 05:31:38;;;;;;;1.70;1.60;;;22.10;49.10;;;;;;5088547;28;20432;-79
2023/09/25 05:34:06;;;;;;;1.87;1.77;;;22.10;49.00;;;;;;5086846;28;20445;-80
2023/09/25 05:36:35;;;;;;;1.77;1.60;;;22.10;49.10;;;;;;5092712;28;20454;-80
2023/09/25 05:39:03;;;;;;;1.87;1.33;;;22.10;49.00;;;;;;5092275;28;20441;-80
2023/09/25 05:41:32;;;;;;;1.60;1.50;;;22.10;49.10;;;;;;5092809;28;20438;-80
2023/09/25 05:44:00;;;;;;;1.73;1.63;;;22.10;49.00;;;;;;5092698;28;20412;-79
2023/09/25 05:46:28;;;;;;;1.50;1.40;;;22.10;49.10;;;;;;5091766;28;20465;-79
2023/09/25 05:48:59;;;;;;;2.70;1.57;;;22.10;48.80;;;;;;5092158;28;20458;-79
2023/09/25 05:51:45;;;;;;;1.73;1.63;;;22.10;49.00;;;;;;5086636;28;20429;-79
2023/09/25 05:54:13;;;;;;;1.40;1.30;;;22.10;49.10;;;;;;5092210;28;20441;-79
2023/09/25 05:56:41;;;;;;;1.50;1.40;;;22.10;48.90;;;;;;5080655;28;20428;-80
2023/09/25 05:59:09;;;;;;;1.70;1.60;;;22.10;49.00;;;;;;5070461;28;20492;-79
2023/09/25 06:01:37;;;;;;;1.90;1.63;;;22.10;49.00;;;;;;5066205;28;20427;-78
2023/09/25 06:04:07;;;;;;;1.50;1.40;;;22.10;48.80;;;;;;5068116;28;20430;-79
2023/09/25 06:06:35;;;;;;;1.50;1.40;;;22.20;48.90;;;;;;5067602;28;20458;-79
2023/09/25 06:09:08;;;;;;;1.50;1.50;;;22.20;49.00;;;;;;5066872;28;20527;-79
2023/09/25 06:11:39;;;;;;;1.70;1.60;;;22.20;48.80;;;;;;5060210;28;20395;-79
2023/09/25 06:14:07;;;;;;;2.60;1.40;;;22.20;49.00;;;;;;5056039;28;20452;-78
2023/09/25 06:16:36;;;;;;;2.00;1.50;;;22.20;48.90;;;;;;5065924;28;20466;-79
2023/09/25 06:19:04;;;;;;;1.43;1.33;;;22.20;48.80;;;;;;5068543;28;20439;-79
2023/09/25 06:21:34;;;;;;;1.43;1.33;;;22.20;48.80;;;;;;5067618;28;20413;-80
2023/09/25 06:24:03;;;;;;;1.33;1.30;;;22.30;48.70;;;;;;5068786;28;20431;-79
2023/09/25 06:26:32;;;;;;;2.50;1.50;;;22.30;48.80;;;;;;5073793;28;20529;-79
2023/09/25 06:29:00;;;;;;;1.27;1.27;;;22.30;48.80;;;;;;5080568;28;20469;-80
2023/09/25 06:31:28;;;;;;;1.53;1.43;;;22.40;48.80;;;;;;5068593;28;20451;-78
2023/09/25 06:33:56;;;;;;;1.60;1.50;;;22.40;48.70;;;;;;5068345;28;20477;-79
2023/09/25 06:36:31;;;;;;;1.60;1.50;;;22.40;48.70;;;;;;5059808;28;20508;-80
2023/09/25 06:39:01;;;;;;;1.70;1.60;;;22.40;48.70;;;;;;5066689;28;20945;-81
2023/09/25 06:41:29;;;;;;;1.60;1.50;;;22.50;48.60;;;;;;5068534;28;20447;-81
2023/09/25 06:44:06;;;;;;;1.70;1.53;;;22.50;48.50;;;;;;5065973;28;20446;-80
2023/09/25 06:46:37;;;;;;;1.90;1.80;;;22.60;48.70;;;;;;5070586;28;20468;-81
2023/09/25 06:49:22;;;;;;;1.40;1.30;;;22.60;48.50;;;;;;5073166;28;20458;-81
2023/09/25 06:51:50;;;;;;;1.47;1.30;;;22.60;48.50;;;;;;5070103;28;20510;-80
2023/09/25 06:54:20;;;;;;;1.37;1.13;;;22.70;48.50;;;;;;5069287;28;20474;-81
2023/09/25 06:56:49;;;;;;;1.43;1.33;;;22.70;48.40;;;;;;5061843;28;20461;-80
2023/09/25 06:59:17;;;;;;;1.80;1.70;;;22.70;48.40;;;;;;5058911;28;20420;-80
2023/09/25 07:01:45;;;;;;;1.73;1.63;;;22.70;48.10;;;;;;5058318;28;20477;-80
2023/09/25 07:04:13;;;;;;;1.70;1.60;;;22.80;48.30;;;;;;5065955;28;20421;-81
2023/09/25 07:06:42;;;;;;;3.67;1.50;;;22.80;48.80;;;;;;5056805;28;20463;-81
2023/09/25 07:09:14;;;;;;;1.57;1.47;;;22.90;48.30;;;;;;5057604;28;20472;-80
2023/09/25 07:11:44;;;;;;;2.40;1.50;;;22.90;48.10;;;;;;5057494;28;20500;-80
2023/09/25 07:14:12;;;;;;;1.30;1.30;;;22.90;48.10;;;;;;5059060;28;20470;-79
2023/09/25 07:16:40;;;;;;;1.87;1.30;;;22.90;48.10;;;;;;5058620;28;20449;-81
2023/09/25 07:19:10;;;;;;;2.00;1.70;;;23.00;48.20;;;;;;5060094;28;20421;-81
2023/09/25 07:21:38;;;;;;;1.60;1.50;;;23.00;48.20;;;;;;5068654;28;20453;-80
2023/09/25 07:24:09;;;;;;;1.60;1.40;;;23.00;48.10;;;;;;5063271;28;20464;-80
2023/09/25 07:26:36;;;;;;;1.80;1.70;;;23.00;48.00;;;;;;5058257;28;20898;-79
2023/09/25 07:29:06;;;;;;;1.47;1.40;;;23.10;48.20;;;;;;5059962;28;20532;-81
2023/09/25 07:31:51;;;;;;;2.70;2.50;;;23.10;47.80;;;;;;5047785;28;20463;-79
2023/09/25 07:34:19;;;;;;;2.80;2.60;;;21.50;50.90;;;;;;5061711;28;20420;-75
2023/09/25 07:36:47;;;;;;;3.80;3.50;;;19.50;55.00;;;;;;5060423;28;20462;-76
2023/09/25 07:39:22;;;;;;;3.07;2.77;;;18.80;57.20;;;;;;5052226;28;20521;-76
2023/09/25 07:41:50;;;;;;;3.37;2.90;;;18.40;58.40;;;;;;5051989;28;20442;-76
2023/09/25 07:44:25;;;;;;;3.40;3.20;;;18.10;58.90;;;;;;5052043;28;20446;-78
2023/09/25 07:46:56;;;;;;;5.43;2.77;;;17.70;60.30;;;;;;5053774;28;21044;-78
2023/09/25 07:49:27;;;;;;;9.57;3.23;;;17.60;61.40;;;;;;5051712;28;20476;-78
2023/09/25 07:52:00;;;;;;;3.90;2.87;;;17.50;62.40;;;;;;5072363;28;20463;-78
2023/09/25 07:54:28;;;;;;;2.83;2.60;;;17.80;62.20;;;;;;5073030;28;20440;-77
2023/09/25 07:57:28;;;;;;;2.83;2.60;;;17.80;62.30;;;;;;5052787;28;20455;-74
2023/09/25 08:00:23;;;;;;;3.60;3.27;;;17.50;62.30;;;;;;5031747;28;20442;-78
2023/09/25 08:02:55;;;;;;;2.70;2.43;;;17.30;63.30;;;;;;5035442;28;20466;-80
2023/09/25 08:05:23;;;;;;;4.63;2.97;;;17.20;65.10;;;;;;5038787;28;20458;-76
2023/09/25 08:07:57;;;;;;;4.83;3.10;;;17.20;65.80;;;;;;5053968;28;20465;-77
2023/09/25 08:10:32;;;;;;;2.83;2.47;;;17.20;65.80;;;;;;5071801;28;20479;-77
2023/09/25 08:13:00;;;;;;;3.07;2.60;;;17.40;65.90;;;;;;5072234;28;20479;-77
2023/09/25 08:15:47;;;;;;;3.20;2.90;;;17.70;65.60;;;;;;5065068;28;20491;-79
2023/09/25 08:18:31;;;;;;;5.03;3.00;;;18.00;64.70;;;;;;5057535;28;20462;-77
2023/09/25 08:20:59;;;;;;;3.20;2.83;;;17.90;65.00;;;;;;5063202;28;20446;-78
2023/09/25 08:23:30;;;;;;;2.97;2.77;;;17.80;66.00;;;;;;5067570;28;20450;-79
2023/09/25 08:26:05;;;;;;;3.70;2.77;;;17.60;66.10;;;;;;5075006;28;20931;-79
2023/09/25 08:28:34;;;;;;;2.87;2.67;;;17.60;67.40;;;;;;5075566;28;20534;-76
2023/09/25 08:31:03;;;;;;;2.73;2.50;;;17.70;66.80;;;;;;5073744;28;20650;-78
2023/09/25 08:33:34;;;;;;;2.77;2.67;;;17.80;66.10;;;;;;5073599;28;20449;-78
2023/09/25 08:36:40;;;;;;;;;;;;;;;;;;;;;
2023/09/25 08:39:27;;;;;;;3.07;2.87;;;17.80;67.10;;;;;;5067411;28;20449;-77
2023/09/25 08:41:56;;;;;;;2.57;2.37;;;17.90;66.20;;;;;;5050198;28;20448;-80
2023/09/25 08:45:09;;;;;;;2.53;2.40;;;18.20;66.90;;;;;;5046954;28;20446;-78
2023/09/25 08:47:39;;;;;;;5.67;2.40;;;18.70;64.10;;;;;;5051102;28;20470;-78
2023/09/25 08:53:24;;;;;;;3.83;2.40;;;18.50;64.40;;;;;;5012820;28;20432;-78
2023/09/25 08:56:32;;;;;;;2.53;2.17;;;18.70;64.80;;;;;;5046511;28;20461;-78
2023/09/25 08:59:14;;;;;;;5.37;2.17;;;18.70;63.70;;;;;;5051480;28;20438;-79
2023/09/25 09:01:43;;;;;;;2.07;1.83;;;19.30;66.50;;;;;;5062664;28;20443;-80
2023/09/25 09:04:13;;;;;;;5.07;1.90;;;20.50;64.20;;;;;;5069039;28;20453;-81
2023/09/25 09:06:42;;;;;;;2.43;1.53;;;21.60;60.60;;;;;;5064802;28;20512;-81
2023/09/25 09:09:11;;;;;;;1.80;1.70;;;22.50;58.20;;;;;;5060748;28;20520;-84
2023/09/25 09:11:39;;;;;;;1.70;1.60;;;23.20;56.50;;;;;;5066121;28;20455;-83
2023/09/25 09:14:07;;;;;;;1.93;1.70;;;23.70;55.00;;;;;;5060783;28;20503;-81
2023/09/25 09:16:35;;;;;;;2.50;1.33;;;24.20;54.00;;;;;;5070247;28;20517;-82
2023/09/25 09:19:07;;;;;;;1.60;1.50;;;24.60;53.70;;;;;;5066211;28;20442;-84
2023/09/25 09:21:38;;;;;;;1.70;1.43;;;25.00;52.20;;;;;;5053812;28;20485;-79
2023/09/25 09:24:08;;;;;;;1.17;1.17;;;25.40;51.50;;;;;;5045479;28;20477;-81
2023/09/25 09:26:37;;;;;;;1.60;1.50;;;25.70;50.70;;;;;;5048804;28;20484;-81
2023/09/25 09:29:05;;;;;;;1.50;1.40;;;26.10;50.10;;;;;;5058124;28;20535;-81
2023/09/25 09:31:33;;;;;;;2.23;1.23;;;26.30;49.40;;;;;;5055856;28;20501;-79
2023/09/25 09:34:01;;;;;;;2.80;1.40;;;26.60;48.90;;;;;;5050304;28;20421;-80
2023/09/25 09:36:29;;;;;;;1.63;1.33;;;26.90;48.50;;;;;;5051179;28;20454;-79
2023/09/25 09:38:59;;;;;;;1.23;1.10;;;27.10;48.00;;;;;;5054276;28;20444;-80
2023/09/25 09:41:27;;;;;;;1.77;1.20;;;27.40;47.50;;;;;;5053222;28;20409;-82
2023/09/25 09:43:55;;;;;;;1.23;1.23;;;27.70;47.10;;;;;;5059611;28;20422;-81
2023/09/25 09:46:26;;;;;;;3.00;1.23;;;27.90;46.50;;;;;;5058612;28;20442;-81
2023/09/25 09:48:54;;;;;;;1.77;1.40;;;28.10;46.10;;;;;;5055703;28;20467;-80
2023/09/25 09:51:23;;;;;;;1.43;1.33;;;28.30;45.70;;;;;;5055898;28;20413;-81
2023/09/25 09:53:52;;;;;;;2.30;1.10;;;28.60;45.60;;;;;;5066679;28;20449;-82
2023/09/25 09:56:22;;;;;;;3.67;1.10;;;28.80;45.00;;;;;;5074804;28;20416;-79
2023/09/25 09:58:50;;;;;;;1.97;1.03;;;29.00;44.60;;;;;;5072104;28;20442;-80
2023/09/25 10:01:18;;;;;;;1.20;1.10;;;29.20;43.90;;;;;;5077961;28;20442;-81
2023/09/25 10:03:47;;;;;;;1.27;1.20;;;29.40;44.00;;;;;;5065089;28;20503;-80
2023/09/25 10:06:15;;;;;;;1.10;1.10;;;29.50;43.80;;;;;;5074380;28;20478;-81
2023/09/25 10:08:59;;;;;;;1.10;1.10;;;29.70;43.40;;;;;;5065565;28;20442;-80
2023/09/25 10:11:28;;;;;;;1.57;1.10;;;29.80;43.40;;;;;;5074606;28;20505;-81
2023/09/25 10:14:01;;;;;;;1.40;1.30;;;30.00;43.10;;;;;;5064219;28;20439;-80
2023/09/25 10:16:29;;;;;;;2.00;1.10;;;30.20;42.90;;;;;;5055742;28;20477;-80
2023/09/25 10:18:57;;;;;;;1.30;1.20;;;30.50;42.70;;;;;;5057503;28;20438;-80
2023/09/25 10:21:25;;;;;;;2.93;1.10;;;30.80;42.40;;;;;;5060238;28;20442;-81
2023/09/25 10:23:54;;;;;;;1.67;1.13;;;31.00;42.10;;;;;;5062703;28;20439;-80
2023/09/25 10:26:23;;;;;;;3.27;1.10;;;31.10;41.50;;;;;;5054500;28;20443;-80
2023/09/25 10:28:59;;;;;;;1.10;1.10;;;31.00;41.40;;;;;;5067974;28;20453;-78
2023/09/25 10:31:29;;;;;;;1.10;1.10;;;30.90;41.20;;;;;;5086575;28;20461;-81
2023/09/25 10:33:58;;;;;;;2.10;1.10;;;30.90;41.20;;;;;;5066838;28;20472;-81
2023/09/25 10:36:45;;;;;;;1.10;1.10;;;30.70;41.20;;;;;;5082303;28;20441;-81
2023/09/25 10:39:14;;;;;;;1.50;1.40;;;30.60;41.30;;;;;;5064634;28;20393;-81
2023/09/25 10:41:45;;;;;;;1.83;1.03;;;30.50;41.30;;;;;;5065308;28;20438;-80
2023/09/25 10:44:15;;;;;;;1.30;1.20;;;30.30;41.20;;;;;;5074249;28;20442;-79
2023/09/25 10:46:43;;;;;;;1.23;1.13;;;30.20;41.20;;;;;;5065383;28;20531;-79
2023/09/25 10:49:12;;;;;;;1.20;1.20;;;30.10;41.30;;;;;;5063463;28;20442;-79
2023/09/25 10:51:40;;;;;;;1.20;1.20;;;30.00;41.30;;;;;;5064519;28;20505;-80
2023/09/25 10:54:08;;;;;;;2.80;1.30;;;29.90;41.40;;;;;;5063579;28;20478;-80
2023/09/25 10:56:36;;;;;;;2.43;1.20;;;29.90;41.40;;;;;;5065193;28;20502;-80
2023/09/25 10:59:05;;;;;;;1.20;1.20;;;29.80;41.30;;;;;;5072240;28;20459;-78
2023/09/25 11:01:35;;;;;;;1.20;1.20;;;29.80;41.30;;;;;;5071432;28;20447;-79
2023/09/25 11:04:03;;;;;;;1.40;1.30;;;29.80;41.20;;;;;;5082582;28;20462;-79
2023/09/25 11:06:31;;;;;;;1.27;1.17;;;29.80;41.20;;;;;;5080486;28;20468;-77
2023/09/25 11:09:00;;;;;;;1.30;1.20;;;29.80;41.10;;;;;;5080899;28;20446;-77
2023/09/25 11:11:29;;;;;;;1.40;1.30;;;29.80;41.10;;;;;;5066722;28;20505;-79
2023/09/25 11:13:57;;;;;;;1.27;1.17;;;29.70;41.20;;;;;;5052862;28;20450;-80
2023/09/25 11:16:31;;;;;;;1.00;1.00;;;29.70;41.20;;;;;;5064252;28;20466;-79
2023/09/25 11:19:13;;;;;;;1.43;1.33;;;29.70;41.00;;;;;;5062440;28;20492;-80
2023/09/25 11:21:46;;;;;;;1.03;1.03;;;29.70;41.10;;;;;;5062117;28;20430;-80
2023/09/25 11:24:14;;;;;;;1.20;1.20;;;29.70;41.00;;;;;;5062905;28;20414;-79
2023/09/25 11:26:43;;;;;;;1.67;1.30;;;29.70;41.00;;;;;;5064520;28;20454;-77
2023/09/25 11:29:12;;;;;;;1.30;1.20;;;29.70;40.90;;;;;;5065023;28;20431;-82
2023/09/25 11:31:40;;;;;;;1.40;1.40;;;29.70;41.00;;;;;;5064155;28;20477;-80
2023/09/25 11:34:30;;;;;;;2.50;1.20;;;29.60;41.00;;;;;;5064915;28;20522;-81
2023/09/25 11:36:58;;;;;;;3.73;1.10;;;29.60;41.00;;;;;;5064038;28;20462;-81
2023/09/25 11:39:27;;;;;;;1.73;1.30;;;29.60;41.00;;;;;;5064420;28;20439;-81
2023/09/25 11:41:55;;;;;;;1.27;1.17;;;29.70;41.00;;;;;;5065038;28;20430;-81
2023/09/25 11:44:23;;;;;;;1.10;1.10;;;29.80;41.00;;;;;;5065044;28;20438;-80
2023/09/25 11:46:51;;;;;;;1.87;1.30;;;30.10;40.90;;;;;;5061246;28;20504;-79
2023/09/25 11:49:19;;;;;;;1.30;1.30;;;30.80;41.10;;;;;;5060208;28;20446;-79
2023/09/25 11:51:49;;;;;;;1.33;1.33;;;31.80;39.90;;;;;;5065198;28;20552;-81
2023/09/25 11:54:17;;;;;;;1.43;1.33;;;32.90;38.50;;;;;;5080193;28;20426;-79
2023/09/25 11:56:45;;;;;;;1.10;1.00;;;33.90;36.20;;;;;;5064294;28;20457;-79
2023/09/25 11:59:15;;;;;;;1.00;1.00;;;34.50;35.20;;;;;;5053139;28;20457;-81
2023/09/25 12:01:43;;;;;;;1.20;1.20;;;35.00;34.20;;;;;;5046596;28;20463;-79
2023/09/25 12:04:12;;;;;;;1.30;1.20;;;34.80;33.90;;;;;;5056405;28;20470;-80
2023/09/25 12:06:42;;;;;;;1.07;1.07;;;34.80;34.10;;;;;;5057400;28;20985;-85
2023/09/25 12:09:12;;;;;;;1.00;1.00;;;34.80;34.00;;;;;;5054872;28;20450;-85
2023/09/25 12:11:40;;;;;;;1.00;1.00;;;34.70;34.20;;;;;;5057508;28;20431;-85
2023/09/25 12:14:09;;;;;;;1.10;1.10;;;34.70;34.10;;;;;;5057624;28;20439;-84
2023/09/25 12:16:37;;;;;;;1.30;1.30;;;34.70;34.20;;;;;;5056027;28;20489;-83
2023/09/25 12:19:06;;;;;;;1.10;1.10;;;34.70;34.00;;;;;;5057126;28;20434;-82
2023/09/25 12:21:35;;;;;;;1.00;1.00;;;34.50;34.20;;;;;;5049892;28;20472;-83
2023/09/25 12:24:05;;;;;;;1.30;1.20;;;34.50;34.60;;;;;;5061602;28;20460;-84
2023/09/25 12:26:36;;;;;;;1.03;1.03;;;34.60;34.50;;;;;;5058657;28;20463;-84
2023/09/25 12:29:07;;;;;;;1.43;1.20;;;34.70;34.10;;;;;;5063691;28;20438;-83
2023/09/25 12:31:35;;;;;;;1.00;1.00;;;34.80;34.40;;;;;;5061578;28;20439;-82
2023/09/25 12:34:04;;;;;;;0.90;0.90;;;35.00;33.80;;;;;;5053484;28;20470;-83
2023/09/25 12:36:35;;;;;;;1.00;1.00;;;35.70;33.60;;;;;;5046061;28;20483;-82
2023/09/25 12:39:06;;;;;;;0.97;0.97;;;36.50;32.60;;;;;;5050594;28;20458;-84
2023/09/25 12:41:41;;;;;;;0.90;0.90;;;36.80;31.40;;;;;;5049785;28;20472;-84
2023/09/25 12:44:12;;;;;;;2.10;1.00;;;36.90;31.30;;;;;;5050825;28;20443;-83
2023/09/25 12:46:40;;;;;;;1.30;1.30;;;37.00;31.30;;;;;;5052054;28;21026;-78
2023/09/25 12:49:09;;;;;;;1.00;1.00;;;37.10;31.20;;;;;;5053671;28;20808;-80
2023/09/25 12:51:37;;;;;;;1.27;1.27;;;36.80;31.10;;;;;;5053638;28;20513;-78
2023/09/25 12:54:06;;;;;;;2.87;1.13;;;36.40;31.20;;;;;;5049721;28;20486;-76
2023/09/25 12:56:33;;;;;;;1.30;1.30;;;36.00;31.90;;;;;;5052463;28;20600;-74
2023/09/25 12:59:03;;;;;;;1.10;1.10;;;35.70;32.20;;;;;;5052681;28;20456;-76
2023/09/25 13:01:31;;;;;;;2.10;1.20;;;35.40;32.60;;;;;;5053075;28;20470;-76
2023/09/25 13:03:59;;;;;;;1.10;1.10;;;35.30;32.80;;;;;;5051662;28;20430;-75
2023/09/25 13:06:27;;;;;;;1.50;1.13;;;35.10;32.80;;;;;;5050061;28;20469;-76